Time,TemperatureF,DewpointF,PressureIn,WindDirection,WindDirectionDegrees,WindSpeedMPH,WindSpeedGustMPH,Humidity,HourlyPrecipIn,Conditions,Clouds,dailyrainin,SoftwareType,DateUTC
2013-04-04 00:00:00,29.6,19.6,30.35,SW,221,0.0,2.0,66,0.00,,---,0.00,VWS V14.00,2013-04-04 04:00:00,
2013-04-04 00:30:00,29.2,20.3,30.35,SE,125,0.0,1.0,69,0.00,,---,0.00,VWS V14.00,2013-04-04 04:30:00,
2013-04-04 01:00:00,28.3,19.5,30.35,SE,141,1.0,1.0,69,0.00,,---,0.00,VWS V14.00,2013-04-04 05:00:00,
2013-04-04 01:30:00,28.0,18.5,30.36,SE,136,0.0,1.0,67,0.00,,---,0.00,VWS V14.00,2013-04-04 05:30:00,
2013-04-04 02:00:00,27.5,20.0,30.36,ESE,121,0.0,1.0,73,0.00,,---,0.00,VWS V14.00,2013-04-04 06:00:00,
2013-04-04 02:30:00,26.9,19.4,30.35,ESE,121,0.0,1.0,73,0.00,,---,0.00,VWS V14.00,2013-04-04 06:30:00,
2013-04-04 03:00:00,27.0,20.1,30.34,ESE,121,0.0,1.0,75,0.00,,---,0.00,VWS V14.00,2013-04-04 07:00:00,
2013-04-04 03:30:00,26.8,20.0,30.33,ESE,121,1.0,2.0,75,0.00,,---,0.00,VWS V14.00,2013-04-04 07:30:00,
2013-04-04 04:00:00,27.7,19.2,30.32,ESE,116,1.0,2.0,70,0.00,,---,0.00,VWS V14.00,2013-04-04 08:00:00,
2013-04-04 04:30:00,27.7,19.2,30.31,ESE,113,2.0,2.0,70,0.00,,---,0.00,VWS V14.00,2013-04-04 08:30:00,
2013-04-04 05:00:00,27.5,19.4,30.31,ESE,117,1.0,2.0,71,0.00,,---,0.00,VWS V14.00,2013-04-04 09:00:00,
2013-04-04 05:30:00,27.9,18.4,30.29,ESE,115,1.0,2.0,67,0.00,,---,0.00,VWS V14.00,2013-04-04 09:30:00,
2013-04-04 06:00:00,27.4,19.2,30.29,ESE,121,1.0,2.0,71,0.00,,---,0.00,VWS V14.00,2013-04-04 10:00:00,
2013-04-04 06:30:00,27.6,19.1,30.28,ESE,121,2.0,3.0,70,0.00,,---,0.00,VWS V14.00,2013-04-04 10:30:00,
2013-04-04 07:00:00,27.3,19.1,30.27,ESE,114,1.0,2.0,71,0.00,,---,0.00,VWS V14.00,2013-04-04 11:00:00,
2013-04-04 07:30:00,26.7,19.5,30.26,ESE,115,0.0,3.0,74,0.00,,---,0.00,VWS V14.00,2013-04-04 11:30:00,
2013-04-04 08:00:00,28.0,18.8,30.26,South,172,2.0,4.0,68,0.00,,---,0.00,VWS V14.00,2013-04-04 12:00:00,
2013-04-04 08:30:00,31.0,20.3,30.25,SE,141,2.0,3.0,64,0.00,,---,0.00,VWS V14.00,2013-04-04 12:30:00,
2013-04-04 09:00:00,33.6,20.0,30.25,SE,135,3.0,5.0,57,0.00,,---,0.00,VWS V14.00,2013-04-04 13:00:00,
2013-04-04 09:30:00,35.3,20.8,30.24,SSE,153,2.0,5.0,55,0.00,,---,0.00,VWS V14.00,2013-04-04 13:30:00,
2013-04-04 10:00:00,38.5,22.0,30.23,SSW,203,1.0,6.0,51,0.00,,---,0.00,VWS V14.00,2013-04-04 14:00:00,
2013-04-04 10:30:00,40.2,22.6,30.22,SSW,207,2.0,5.0,49,0.00,,---,0.00,VWS V14.00,2013-04-04 14:30:00,
2013-04-04 11:00:00,42.4,22.0,30.21,SSW,205,4.0,7.0,44,0.00,,---,0.00,VWS V14.00,2013-04-04 15:00:00,
2013-04-04 11:30:00,43.9,22.9,30.20,WSW,242,2.0,6.0,43,0.00,,---,0.00,VWS V14.00,2013-04-04 15:30:00,
2013-04-04 12:00:00,45.3,23.0,30.19,ESE,111,1.0,5.0,41,0.00,,---,0.00,VWS V14.00,2013-04-04 16:00:00,
2013-04-04 12:30:00,46.4,24.6,30.17,NNW,348,1.0,3.0,42,0.00,,---,0.00,VWS V14.01,2013-04-04 16:30:00,
2013-04-04 13:00:00,48.1,22.4,30.16,West,264,1.0,5.0,36,0.00,,---,0.00,VWS V14.00,2013-04-04 17:00:00,
2013-04-04 13:30:00,49.5,25.6,30.13,NNW,345,0.0,5.0,39,0.00,,---,0.00,VWS V14.00,2013-04-04 17:30:00,
2013-04-04 14:00:00,50.6,26.0,30.12,West,271,4.0,5.0,38,0.00,,---,0.00,VWS V14.00,2013-04-04 18:00:00,
2013-04-04 14:30:00,51.4,27.9,30.10,NW,314,3.0,7.0,40,0.00,,---,0.00,VWS V14.00,2013-04-04 18:30:00,
2013-04-04 15:00:00,52.9,26.0,30.09,NNE,22,2.0,7.0,35,0.00,,---,0.00,VWS V14.00,2013-04-04 19:00:00,
2013-04-04 15:30:00,53.6,25.2,30.07,SW,228,5.0,11.0,33,0.00,,---,0.00,VWS V14.01,2013-04-04 19:30:00,
2013-04-04 16:00:00,54.5,23.7,30.06,SSW,200,1.0,8.0,30,0.00,,---,0.00,VWS V14.00,2013-04-04 20:00:00,
2013-04-04 16:30:00,53.6,29.9,30.04,WNW,288,4.0,9.0,40,0.00,,---,0.00,VWS V14.00,2013-04-04 20:30:00,
2013-04-04 17:00:00,53.9,29.5,30.03,West,276,5.0,9.0,39,0.00,,---,0.00,VWS V14.00,2013-04-04 21:00:00,
2013-04-04 17:30:00,55.4,26.0,30.02,WSW,243,4.0,10.0,32,0.00,,---,0.00,VWS V14.00,2013-04-04 21:30:00,
2013-04-04 18:00:00,55.5,28.3,30.01,WNW,289,5.0,10.0,35,0.00,,---,0.00,VWS V14.00,2013-04-04 22:00:00,
2013-04-04 18:30:00,54.8,29.0,30.01,WNW,302,6.0,10.0,37,0.00,,---,0.00,VWS V14.00,2013-04-04 22:30:00,
2013-04-04 19:00:00,54.8,24.8,30.01,WNW,295,6.0,10.0,31,0.00,,---,0.00,VWS V14.00,2013-04-04 23:00:00,
2013-04-04 19:30:00,53.8,27.5,30.01,WSW,238,8.0,9.0,36,0.00,,---,0.00,VWS V14.00,2013-04-04 23:30:00,
2013-04-04 20:00:00,52.6,25.8,30.00,SSW,196,1.0,8.0,35,0.00,,---,0.00,VWS V14.00,2013-04-05 00:00:00,
2013-04-04 20:30:00,49.2,27.7,30.00,SE,133,1.0,2.0,43,0.00,,---,0.00,VWS V14.00,2013-04-05 00:30:00,
2013-04-04 21:00:00,45.4,26.9,29.99,SE,127,1.0,1.0,48,0.00,,---,0.00,VWS V14.00,2013-04-05 01:00:00,
2013-04-04 21:30:00,42.9,27.9,30.00,ESE,121,0.0,1.0,55,0.00,,---,0.00,VWS V14.00,2013-04-05 01:30:00,
2013-04-04 22:00:00,41.0,26.5,30.00,ESE,122,1.0,1.0,56,0.00,,---,0.00,VWS V14.00,2013-04-05 02:00:00,
2013-04-04 22:30:00,39.6,27.3,30.00,ESE,119,0.0,1.0,61,0.00,,---,0.00,VWS V14.00,2013-04-05 02:30:00,
2013-04-04 23:00:00,38.3,28.0,30.00,ESE,118,0.0,0.0,66,0.00,,---,0.00,VWS V14.00,2013-04-05 03:00:00,
2013-04-04 23:30:00,37.5,27.9,29.99,ESE,115,0.0,0.0,68,0.00,,---,0.00,VWS V14.00,2013-04-05 03:30:00,